Burns Township, Minnesota
Current Conditions -  °F | °C
As of 4:34 PM on Wednesday 22 Oct 2014 (Local Time) from KPNM Reporting Station
Clear Clear  
Wind Chill: 59°   Ceiling: Unl
Heat Index: 59°   Visibility: 10mi
Dew Point: 45°   Wind: 13mph
Humidity: 59%   Direction: 140°SE
Pressure: 30.02"   Gusts: 18mph
Location:  45.345°N, 93.5658°W
Report Text: KPNM 222134Z AUTO 14011G16KT 10SM CLR 15/07 A3002 RMK AO2
Loading
Personal Weather Stations






























Interactive Weather Map
Tropical Storm Tracking
New forecast layout! Learn more

10-Day Weather Forecast

Advertisements
Track Severe Weather on mobile